sensor_id;sensor_type;location;lat;lon;timestamp;pressure;altitude;pressure_sealevel;temperature;humidity
26563;BME280;14217;50.986;5.826;2023-02-10T00:03:52;102949.88;;;16.45;36.34
26563;BME280;14217;50.986;5.826;2023-02-10T00:09:00;102965.75;;;16.26;36.71
26563;BME280;14217;50.986;5.826;2023-02-10T00:14:02;102950.75;;;16.39;36.59
26563;BME280;14217;50.986;5.826;2023-02-10T00:19:04;102951.63;;;16.48;36.17
26563;BME280;14217;50.986;5.826;2023-02-10T00:24:06;102964.84;;;16.48;36.41
26563;BME280;14217;50.986;5.826;2023-02-10T00:29:08;102963.09;;;16.46;36.30
26563;BME280;14217;50.986;5.826;2023-02-10T00:34:11;102956.03;;;16.45;36.54
26563;BME280;14217;50.986;5.826;2023-02-10T00:39:15;102968.41;;;16.39;36.55
26563;BME280;14217;50.986;5.826;2023-02-10T00:44:17;102963.97;;;16.44;36.45
26563;BME280;14217;50.986;5.826;2023-02-10T00:49:19;102963.97;;;16.45;36.34
26563;BME280;14217;50.986;5.826;2023-02-10T00:54:21;102966.59;;;16.52;36.26
26563;BME280;14217;50.986;5.826;2023-02-10T00:59:23;102958.66;;;16.50;36.18
26563;BME280;14217;50.986;5.826;2023-02-10T01:04:25;102978.09;;;16.49;36.25
26563;BME280;14217;50.986;5.826;2023-02-10T01:09:27;102975.44;;;16.44;36.53
26563;BME280;14217;50.986;5.826;2023-02-10T01:14:29;102973.66;;;16.42;36.62
26563;BME280;14217;50.986;5.826;2023-02-10T01:19:31;102971.88;;;16.55;36.20
26563;BME280;14217;50.986;5.826;2023-02-10T01:24:33;102980.72;;;16.48;36.43
26563;BME280;14217;50.986;5.826;2023-02-10T01:29:35;102982.50;;;16.47;36.46
26563;BME280;14217;50.986;5.826;2023-02-10T01:34:37;102987.78;;;16.53;36.49
26563;BME280;14217;50.986;5.826;2023-02-10T01:39:39;102986.03;;;16.43;36.48
26563;BME280;14217;50.986;5.826;2023-02-10T01:49:46;102995.72;;;16.50;36.47
26563;BME280;14217;50.986;5.826;2023-02-10T01:54:54;102997.47;;;16.48;36.52
26563;BME280;14217;50.986;5.826;2023-02-10T02:00:00;103008.06;;;16.51;36.59
26563;BME280;14217;50.986;5.826;2023-02-10T02:05:05;103002.75;;;16.53;36.52
26563;BME280;14217;50.986;5.826;2023-02-10T02:10:07;103007.19;;;16.52;36.29
26563;BME280;14217;50.986;5.826;2023-02-10T02:36:50;103016.00;;;16.43;36.52
26563;BME280;14217;50.986;5.826;2023-02-10T02:53:04;103021.28;;;16.48;36.77
26563;BME280;14217;50.986;5.826;2023-02-10T02:58:56;103022.22;;;16.36;36.62
26563;BME280;14217;50.986;5.826;2023-02-10T03:03:37;103023.97;;;16.37;36.96
26563;BME280;14217;50.986;5.826;2023-02-10T03:08:40;103007.22;;;16.44;36.72
26563;BME280;14217;50.986;5.826;2023-02-10T03:13:42;102999.25;;;16.46;36.72
26563;BME280;14217;50.986;5.826;2023-02-10T03:18:44;102988.66;;;16.51;36.54
26563;BME280;14217;50.986;5.826;2023-02-10T03:23:46;102978.06;;;16.51;36.81
26563;BME280;14217;50.986;5.826;2023-02-10T03:28:48;102958.69;;;16.45;36.70
26563;BME280;14217;50.986;5.826;2023-02-10T03:33:50;102972.78;;;16.48;36.72
26563;BME280;14217;50.986;5.826;2023-02-10T03:38:52;102994.84;;;16.37;37.03
26563;BME280;14217;50.986;5.826;2023-02-10T03:43:54;102992.19;;;16.43;36.72
26563;BME280;14217;50.986;5.826;2023-02-10T03:48:56;102989.56;;;16.46;36.58
26563;BME280;14217;50.986;5.826;2023-02-10T03:53:58;103003.69;;;16.41;36.70
26563;BME280;14217;50.986;5.826;2023-02-10T03:59:04;103003.66;;;16.47;36.56
26563;BME280;14217;50.986;5.826;2023-02-10T04:04:06;103011.63;;;16.41;36.80
26563;BME280;14217;50.986;5.826;2023-02-10T04:09:08;103008.06;;;16.42;36.73
26563;BME280;14217;50.986;5.826;2023-02-10T04:14:10;103016.91;;;16.47;36.90
26563;BME280;14217;50.986;5.826;2023-02-10T04:19:12;103021.28;;;16.48;36.57
26563;BME280;14217;50.986;5.826;2023-02-10T04:24:14;103029.25;;;16.34;36.76
26563;BME280;14217;50.986;5.826;2023-02-10T04:29:17;103030.13;;;16.39;36.84
26563;BME280;14217;50.986;5.826;2023-02-10T04:34:19;103033.66;;;16.32;36.90
26563;BME280;14217;50.986;5.826;2023-02-10T04:39:21;103032.78;;;16.35;37.05
26563;BME280;14217;50.986;5.826;2023-02-10T04:44:23;103038.06;;;16.44;36.92
26563;BME280;14217;50.986;5.826;2023-02-10T04:49:25;103031.00;;;16.34;36.96
26563;BME280;14217;50.986;5.826;2023-02-10T04:54:27;103028.38;;;16.31;37.03
26563;BME280;14217;50.986;5.826;2023-02-10T04:59:29;103020.44;;;16.28;36.95
26563;BME280;14217;50.986;5.826;2023-02-10T05:04:31;103020.44;;;16.35;36.80
26563;BME280;14217;50.986;5.826;2023-02-10T05:09:33;103018.69;;;16.28;37.16
26563;BME280;14217;50.986;5.826;2023-02-10T05:14:35;103020.44;;;16.28;37.18
26563;BME280;14217;50.986;5.826;2023-02-10T05:19:37;103023.06;;;16.35;37.09
26563;BME280;14217;50.986;5.826;2023-02-10T05:24:39;103024.84;;;16.33;36.96
26563;BME280;14217;50.986;5.826;2023-02-10T05:29:41;103021.31;;;16.36;37.02
26563;BME280;14217;50.986;5.826;2023-02-10T05:34:43;103031.03;;;16.43;36.73
26563;BME280;14217;50.986;5.826;2023-02-10T05:39:45;103040.72;;;16.27;36.95
26563;BME280;14217;50.986;5.826;2023-02-10T05:44:47;103049.53;;;16.26;37.27
26563;BME280;14217;50.986;5.826;2023-02-10T05:49:49;103045.13;;;16.26;36.99
26563;BME280;14217;50.986;5.826;2023-02-10T05:54:50;103051.31;;;16.30;37.09
26563;BME280;14217;50.986;5.826;2023-02-10T05:59:53;103050.41;;;16.42;36.91
26563;BME280;14217;50.986;5.826;2023-02-10T06:04:55;103039.84;;;16.37;36.97
26563;BME280;14217;50.986;5.826;2023-02-10T06:09:57;103037.19;;;16.34;37.10
26563;BME280;14217;50.986;5.826;2023-02-10T06:14:59;103046.00;;;16.22;37.30
26563;BME280;14217;50.986;5.826;2023-02-10T06:20:01;103047.78;;;16.26;37.12
26563;BME280;14217;50.986;5.826;2023-02-10T06:25:03;103057.47;;;16.35;36.93
26563;BME280;14217;50.986;5.826;2023-02-10T06:30:05;103066.28;;;16.33;37.12
26563;BME280;14217;50.986;5.826;2023-02-10T06:35:07;103070.69;;;16.34;36.80
26563;BME280;14217;50.986;5.826;2023-02-10T06:40:10;103088.34;;;16.30;36.93
26563;BME280;14217;50.986;5.826;2023-02-10T06:45:12;103080.41;;;16.30;37.04
26563;BME280;14217;50.986;5.826;2023-02-10T06:50:14;103080.41;;;16.35;37.06
26563;BME280;14217;50.986;5.826;2023-02-10T06:55:16;103075.97;;;16.23;37.07
26563;BME280;14217;50.986;5.826;2023-02-10T07:00:18;103068.97;;;16.30;37.19
26563;BME280;14217;50.986;5.826;2023-02-10T07:05:20;103069.81;;;16.27;37.28
26563;BME280;14217;50.986;5.826;2023-02-10T07:10:22;103080.41;;;16.25;37.27
26563;BME280;14217;50.986;5.826;2023-02-10T07:15:25;103069.81;;;16.32;36.89
26563;BME280;14217;50.986;5.826;2023-02-10T07:20:27;103071.59;;;16.34;36.87
26563;BME280;14217;50.986;5.826;2023-02-10T07:25:30;103076.00;;;16.32;37.05
26563;BME280;14217;50.986;5.826;2023-02-10T07:30:31;103082.16;;;16.22;37.40
26563;BME280;14217;50.986;5.826;2023-02-10T07:35:33;103092.75;;;16.25;37.10
26563;BME280;14217;50.986;5.826;2023-02-10T07:40:35;103091.88;;;16.28;37.30
26563;BME280;14217;50.986;5.826;2023-02-10T07:45:37;103086.56;;;16.23;37.25
26563;BME280;14217;50.986;5.826;2023-02-10T07:50:39;103083.06;;;16.24;37.26
26563;BME280;14217;50.986;5.826;2023-02-10T07:55:41;103086.56;;;16.18;37.49
26563;BME280;14217;50.986;5.826;2023-02-10T08:00:43;103098.06;;;16.34;37.24
26563;BME280;14217;50.986;5.826;2023-02-10T08:05:45;103095.41;;;16.22;37.24
26563;BME280;14217;50.986;5.826;2023-02-10T08:10:50;103111.25;;;16.26;37.44
26563;BME280;14217;50.986;5.826;2023-02-10T08:15:51;103118.31;;;16.29;37.23
26563;BME280;14217;50.986;5.826;2023-02-10T08:20:53;103118.31;;;16.26;37.46
26563;BME280;14217;50.986;5.826;2023-02-10T08:25:56;103118.31;;;16.24;37.45
26563;BME280;14217;50.986;5.826;2023-02-10T08:30:59;103122.75;;;16.25;37.55
26563;BME280;14217;50.986;5.826;2023-02-10T08:36:06;103115.69;;;16.26;37.56
26563;BME280;14217;50.986;5.826;2023-02-10T08:41:08;103122.72;;;16.22;37.57
26563;BME280;14217;50.986;5.826;2023-02-10T08:46:11;103111.25;;;16.31;37.75
26563;BME280;14217;50.986;5.826;2023-02-10T08:51:14;103109.47;;;16.07;38.09
26563;BME280;14217;50.986;5.826;2023-02-10T08:56:18;103108.59;;;16.16;38.14
26563;BME280;14217;50.986;5.826;2023-02-10T09:01:24;103107.75;;;16.32;37.65
26563;BME280;14217;50.986;5.826;2023-02-10T09:06:34;103112.16;;;16.24;37.53
26563;BME280;14217;50.986;5.826;2023-02-10T09:11:41;103118.31;;;16.11;38.08
26563;BME280;14217;50.986;5.826;2023-02-10T09:16:44;103126.22;;;16.12;38.00
26563;BME280;14217;50.986;5.826;2023-02-10T09:21:46;103125.28;;;15.84;38.27
26563;BME280;14217;50.986;5.826;2023-02-10T09:26:48;103128.03;;;16.24;37.89
26563;BME280;14217;50.986;5.826;2023-02-10T09:31:50;103130.63;;;16.15;37.87
26563;BME280;14217;50.986;5.826;2023-02-10T09:36:52;103136.78;;;15.98;38.22
26563;BME280;14217;50.986;5.826;2023-02-10T09:42:29;103138.53;;;15.93;38.30
26563;BME280;14217;50.986;5.826;2023-02-10T09:47:50;103130.59;;;15.99;37.97
26563;BME280;14217;50.986;5.826;2023-02-10T09:53:21;103124.44;;;16.08;37.76
26563;BME280;14217;50.986;5.826;2023-02-10T10:03:54;103129.75;;;16.00;38.05
26563;BME280;14217;50.986;5.826;2023-02-10T10:14:36;103135.94;;;16.09;37.84
26563;BME280;14217;50.986;5.826;2023-02-10T10:19:58;103134.16;;;16.04;37.73
26563;BME280;14217;50.986;5.826;2023-02-10T10:25:14;103148.25;;;16.13;37.63
26563;BME280;14217;50.986;5.826;2023-02-10T10:30:20;103142.13;;;16.15;37.81
26563;BME280;14217;50.986;5.826;2023-02-10T10:35:31;103148.25;;;16.13;37.60
26563;BME280;14217;50.986;5.826;2023-02-10T10:40:37;103144.75;;;16.17;37.88
26563;BME280;14217;50.986;5.826;2023-02-10T10:45:47;103137.69;;;16.14;37.76
26563;BME280;14217;50.986;5.826;2023-02-10T10:51:02;103135.97;;;16.19;37.70
26563;BME280;14217;50.986;5.826;2023-02-10T10:56:54;103135.06;;;16.19;37.68
26563;BME280;14217;50.986;5.826;2023-02-10T11:01:40;103127.13;;;16.20;37.97
26563;BME280;14217;50.986;5.826;2023-02-10T11:06:46;103120.94;;;16.23;37.48
26563;BME280;14217;50.986;5.826;2023-02-10T11:11:53;103119.22;;;16.28;37.31
26563;BME280;14217;50.986;5.826;2023-02-10T11:16:59;103117.41;;;16.15;37.89
26563;BME280;14217;50.986;5.826;2023-02-10T11:22:16;103114.81;;;16.36;37.42
26563;BME280;14217;50.986;5.826;2023-02-10T11:27:18;103105.97;;;16.25;37.60
26563;BME280;14217;50.986;5.826;2023-02-10T11:32:28;103105.13;;;16.44;37.31
26563;BME280;14217;50.986;5.826;2023-02-10T11:37:33;103099.78;;;16.18;37.59
26563;BME280;14217;50.986;5.826;2023-02-10T11:42:38;103093.63;;;16.33;37.43
26563;BME280;14217;50.986;5.826;2023-02-10T11:47:40;103086.56;;;16.29;37.49
26563;BME280;14217;50.986;5.826;2023-02-10T11:52:42;103094.53;;;16.44;37.07
26563;BME280;14217;50.986;5.826;2023-02-10T11:57:54;103076.00;;;16.44;36.98
26563;BME280;14217;50.986;5.826;2023-02-10T12:03:28;103073.34;;;16.40;37.06
26563;BME280;14217;50.986;5.826;2023-02-10T12:25:05;103053.06;;;16.34;37.42
26563;BME280;14217;50.986;5.826;2023-02-10T12:40:51;103031.00;;;16.49;36.99
26563;BME280;14217;50.986;5.826;2023-02-10T12:56:23;103028.34;;;16.46;36.96
26563;BME280;14217;50.986;5.826;2023-02-10T13:01:39;103017.78;;;16.44;37.20
26563;BME280;14217;50.986;5.826;2023-02-10T13:07:11;103013.38;;;16.37;37.35
26563;BME280;14217;50.986;5.826;2023-02-10T13:12:25;103013.38;;;16.39;37.15
26563;BME280;14217;50.986;5.826;2023-02-10T13:17:36;102996.59;;;16.34;37.21
26563;BME280;14217;50.986;5.826;2023-02-10T13:22:47;103007.22;;;16.32;37.25
26563;BME280;14217;50.986;5.826;2023-02-10T13:33:22;102996.63;;;16.43;37.28
26563;BME280;14217;50.986;5.826;2023-02-10T13:38:30;102984.25;;;16.37;37.26
26563;BME280;14217;50.986;5.826;2023-02-10T13:43:35;102984.28;;;16.40;37.23
26563;BME280;14217;50.986;5.826;2023-02-10T13:48:37;102989.56;;;16.40;37.44
26563;BME280;14217;50.986;5.826;2023-02-10T13:53:41;102990.44;;;16.32;37.44
26563;BME280;14217;50.986;5.826;2023-02-10T13:58:48;102974.56;;;16.32;37.63
26563;BME280;14217;50.986;5.826;2023-02-10T14:03:55;102963.09;;;16.45;37.16
26563;BME280;14217;50.986;5.826;2023-02-10T14:09:04;102966.59;;;16.52;37.08
26563;BME280;14217;50.986;5.826;2023-02-10T14:19:28;102966.63;;;16.39;37.42
26563;BME280;14217;50.986;5.826;2023-02-10T14:24:34;102973.69;;;16.39;37.32
26563;BME280;14217;50.986;5.826;2023-02-10T14:29:54;102971.00;;;16.53;37.23
26563;BME280;14217;50.986;5.826;2023-02-10T14:35:03;102961.34;;;16.36;37.61
26563;BME280;14217;50.986;5.826;2023-02-10T14:40:21;102958.69;;;16.45;37.39
26563;BME280;14217;50.986;5.826;2023-02-10T14:45:25;102952.50;;;16.46;37.16
26563;BME280;14217;50.986;5.826;2023-02-10T14:50:30;102961.34;;;16.39;37.54
26563;BME280;14217;50.986;5.826;2023-02-10T14:55:35;102966.59;;;16.52;37.31
26563;BME280;14217;50.986;5.826;2023-02-10T15:00:40;102975.44;;;16.43;37.70
26563;BME280;14217;50.986;5.826;2023-02-10T15:05:48;102970.16;;;16.37;37.77
26563;BME280;14217;50.986;5.826;2023-02-10T15:10:53;102972.78;;;16.54;37.24
26563;BME280;14217;50.986;5.826;2023-02-10T15:15:57;102974.59;;;16.22;42.24
26563;BME280;14217;50.986;5.826;2023-02-10T15:21:02;102987.81;;;16.13;44.70
26563;BME280;14217;50.986;5.826;2023-02-10T15:26:13;102978.13;;;16.12;44.65
26563;BME280;14217;50.986;5.826;2023-02-10T15:31:25;102982.50;;;16.27;44.87
26563;BME280;14217;50.986;5.826;2023-02-10T15:41:40;102987.81;;;15.98;46.50
26563;BME280;14217;50.986;5.826;2023-02-10T15:46:46;102991.34;;;16.26;45.46
26563;BME280;14217;50.986;5.826;2023-02-10T15:51:54;102979.88;;;16.42;44.93
26563;BME280;14217;50.986;5.826;2023-02-10T15:56:58;102987.81;;;16.41;44.77
26563;BME280;14217;50.986;5.826;2023-02-10T16:02:03;102988.66;;;16.49;44.14
26563;BME280;14217;50.986;5.826;2023-02-10T16:07:06;102978.94;;;16.57;43.54
26563;BME280;14217;50.986;5.826;2023-02-10T16:12:08;102984.25;;;16.42;44.58
26563;BME280;14217;50.986;5.826;2023-02-10T16:17:15;102979.84;;;16.39;44.63
26563;BME280;14217;50.986;5.826;2023-02-10T16:22:20;102969.28;;;16.29;45.15
26563;BME280;14217;50.986;5.826;2023-02-10T16:27:22;102977.22;;;16.21;45.41
26563;BME280;14217;50.986;5.826;2023-02-10T16:32:24;102982.53;;;16.12;44.58
26563;BME280;14217;50.986;5.826;2023-02-10T16:37:26;102977.25;;;15.90;44.36
26563;BME280;14217;50.986;5.826;2023-02-10T16:42:27;102986.03;;;15.89;44.10
26563;BME280;14217;50.986;5.826;2023-02-10T16:47:29;102979.88;;;15.87;44.02
26563;BME280;14217;50.986;5.826;2023-02-10T16:52:32;102975.50;;;16.04;45.23
26563;BME280;14217;50.986;5.826;2023-02-10T16:57:33;102978.97;;;16.19;45.12
26563;BME280;14217;50.986;5.826;2023-02-10T17:02:36;102982.53;;;16.24;45.04
26563;BME280;14217;50.986;5.826;2023-02-10T17:07:38;102996.66;;;16.15;44.35
26563;BME280;14217;50.986;5.826;2023-02-10T17:12:40;102991.34;;;16.14;43.82
26563;BME280;14217;50.986;5.826;2023-02-10T17:17:43;102991.34;;;16.04;43.67
26563;BME280;14217;50.986;5.826;2023-02-10T17:22:45;102993.97;;;16.01;43.46
26563;BME280;14217;50.986;5.826;2023-02-10T17:27:47;103001.94;;;16.03;43.36
26563;BME280;14217;50.986;5.826;2023-02-10T17:32:50;103010.72;;;16.02;42.85
26563;BME280;14217;50.986;5.826;2023-02-10T17:37:52;103009.88;;;16.09;42.77
26563;BME280;14217;50.986;5.826;2023-02-10T17:43:13;103017.78;;;15.86;43.17
26563;BME280;14217;50.986;5.826;2023-02-10T17:48:14;103030.09;;;15.87;43.18
26563;BME280;14217;50.986;5.826;2023-02-10T17:53:16;102998.41;;;15.96;42.81
26563;BME280;14217;50.986;5.826;2023-02-10T17:58:19;103009.84;;;16.14;42.16
26563;BME280;14217;50.986;5.826;2023-02-10T18:03:21;103004.56;;;16.31;41.38
26563;BME280;14217;50.986;5.826;2023-02-10T18:08:23;102993.97;;;16.31;41.62
26563;BME280;14217;50.986;5.826;2023-02-10T18:13:25;102995.75;;;16.02;43.42
26563;BME280;14217;50.986;5.826;2023-02-10T18:18:27;102979.00;;;16.08;43.27
26563;BME280;14217;50.986;5.826;2023-02-10T18:23:29;102972.84;;;15.91;43.40
26563;BME280;14217;50.986;5.826;2023-02-10T18:28:31;102977.25;;;16.02;43.56
26563;BME280;14217;50.986;5.826;2023-02-10T18:33:33;102964.00;;;15.98;44.32
26563;BME280;14217;50.986;5.826;2023-02-10T18:38:35;102960.47;;;16.20;41.98
26563;BME280;14217;50.986;5.826;2023-02-10T18:43:37;102975.44;;;16.23;41.92
26563;BME280;14217;50.986;5.826;2023-02-10T18:48:40;102965.75;;;16.34;41.42
26563;BME280;14217;50.986;5.826;2023-02-10T18:53:42;102964.00;;;16.35;41.37
26563;BME280;14217;50.986;5.826;2023-02-10T18:58:44;102973.69;;;16.33;41.22
26563;BME280;14217;50.986;5.826;2023-02-10T19:03:46;102966.66;;;16.18;41.16
26563;BME280;14217;50.986;5.826;2023-02-10T19:08:48;102966.66;;;16.10;41.29
26563;BME280;14217;50.986;5.826;2023-02-10T19:13:50;102948.16;;;15.96;41.37
26563;BME280;14217;50.986;5.826;2023-02-10T19:18:52;102941.97;;;16.11;41.13
26563;BME280;14217;50.986;5.826;2023-02-10T19:23:54;102943.75;;;16.11;41.20
26563;BME280;14217;50.986;5.826;2023-02-10T19:28:57;102956.97;;;16.14;40.83
26563;BME280;14217;50.986;5.826;2023-02-10T19:34:02;102949.88;;;16.19;40.72
26563;BME280;14217;50.986;5.826;2023-02-10T19:39:04;102946.38;;;16.24;40.39
26563;BME280;14217;50.986;5.826;2023-02-10T19:44:12;102943.72;;;16.26;40.32
26563;BME280;14217;50.986;5.826;2023-02-10T19:49:15;102944.59;;;16.34;40.25
26563;BME280;14217;50.986;5.826;2023-02-10T19:54:17;102941.03;;;16.40;39.95
26563;BME280;14217;50.986;5.826;2023-02-10T19:59:19;102936.66;;;16.33;40.00
26563;BME280;14217;50.986;5.826;2023-02-10T20:04:21;102941.03;;;16.34;40.17
26563;BME280;14217;50.986;5.826;2023-02-10T20:09:23;102936.66;;;16.31;40.26
26563;BME280;14217;50.986;5.826;2023-02-10T20:14:26;102937.50;;;16.38;40.05
26563;BME280;14217;50.986;5.826;2023-02-10T20:19:28;102935.75;;;16.35;40.09
26563;BME280;14217;50.986;5.826;2023-02-10T20:24:30;102933.97;;;16.42;39.88
26563;BME280;14217;50.986;5.826;2023-02-10T20:29:32;102931.34;;;16.43;39.75
26563;BME280;14217;50.986;5.826;2023-02-10T20:34:34;102930.47;;;16.37;39.89
26563;BME280;14217;50.986;5.826;2023-02-10T20:39:36;102920.78;;;16.39;40.12
26563;BME280;14217;50.986;5.826;2023-02-10T20:44:38;102931.38;;;16.30;40.21
26563;BME280;14217;50.986;5.826;2023-02-10T20:49:40;102919.06;;;16.12;41.59
26563;BME280;14217;50.986;5.826;2023-02-10T20:54:42;102927.88;;;16.09;43.43
26563;BME280;14217;50.986;5.826;2023-02-10T20:59:45;102931.41;;;16.03;43.56
26563;BME280;14217;50.986;5.826;2023-02-10T21:04:47;102931.41;;;16.07;43.44
26563;BME280;14217;50.986;5.826;2023-02-10T21:09:50;102932.28;;;16.02;43.90
26563;BME280;14217;50.986;5.826;2023-02-10T21:14:52;102927.88;;;16.08;43.71
26563;BME280;14217;50.986;5.826;2023-02-10T21:19:53;102927.88;;;16.04;43.29
26563;BME280;14217;50.986;5.826;2023-02-10T21:24:55;102935.81;;;16.04;44.75
26563;BME280;14217;50.986;5.826;2023-02-10T21:29:57;102941.09;;;16.20;43.41
26563;BME280;14217;50.986;5.826;2023-02-10T21:34:59;102950.75;;;16.32;43.11
26563;BME280;14217;50.986;5.826;2023-02-10T21:40:02;102948.97;;;16.34;42.66
26563;BME280;14217;50.986;5.826;2023-02-10T21:45:04;102937.50;;;16.39;42.30
26563;BME280;14217;50.986;5.826;2023-02-10T21:50:06;102930.44;;;16.46;41.99
26563;BME280;14217;50.986;5.826;2023-02-10T21:55:08;102943.66;;;16.52;41.83
26563;BME280;14217;50.986;5.826;2023-02-10T22:00:11;102942.75;;;16.55;41.85
26563;BME280;14217;50.986;5.826;2023-02-10T22:05:13;102948.03;;;16.62;41.24
26563;BME280;14217;50.986;5.826;2023-02-10T22:10:15;102936.63;;;16.46;42.51
26563;BME280;14217;50.986;5.826;2023-02-10T22:15:17;102924.28;;;16.42;42.36
26563;BME280;14217;50.986;5.826;2023-02-10T22:20:19;102931.34;;;16.40;42.19
26563;BME280;14217;50.986;5.826;2023-02-10T22:25:21;102933.94;;;16.54;41.67
26563;BME280;14217;50.986;5.826;2023-02-10T22:30:23;102925.16;;;16.48;41.93
26563;BME280;14217;50.986;5.826;2023-02-10T22:35:25;102924.28;;;16.49;41.50
26563;BME280;14217;50.986;5.826;2023-02-10T22:40:27;102907.50;;;16.48;41.35
26563;BME280;14217;50.986;5.826;2023-02-10T22:45:29;102914.56;;;16.54;41.51
26563;BME280;14217;50.986;5.826;2023-02-10T22:50:31;102907.47;;;16.59;41.26
26563;BME280;14217;50.986;5.826;2023-02-10T22:55:33;102925.13;;;16.51;41.20
26563;BME280;14217;50.986;5.826;2023-02-10T23:00:35;102946.31;;;16.55;41.04
26563;BME280;14217;50.986;5.826;2023-02-10T23:05:41;102938.38;;;16.55;40.88
26563;BME280;14217;50.986;5.826;2023-02-10T23:10:43;102942.75;;;16.64;40.71
26563;BME280;14217;50.986;5.826;2023-02-10T23:15:45;102939.25;;;16.63;40.68
26563;BME280;14217;50.986;5.826;2023-02-10T23:20:47;102931.28;;;16.62;40.95
26563;BME280;14217;50.986;5.826;2023-02-10T23:25:52;102918.03;;;16.66;40.85
26563;BME280;14217;50.986;5.826;2023-02-10T23:30:54;102889.81;;;16.62;40.62
26563;BME280;14217;50.986;5.826;2023-02-10T23:35:56;102888.94;;;16.63;40.84
26563;BME280;14217;50.986;5.826;2023-02-10T23:40:58;102876.50;;;16.78;40.22
26563;BME280;14217;50.986;5.826;2023-02-10T23:46:00;102879.22;;;16.65;40.69
26563;BME280;14217;50.986;5.826;2023-02-10T23:51:08;102877.44;;;16.63;40.54
26563;BME280;14217;50.986;5.826;2023-02-10T23:56:12;102863.38;;;16.59;40.81
